Time;durP1;ratioP1;P1;durP2;ratioP2;P2;SDS_P1;SDS_P2;PMS_P1;PMS_P2;Temp;Humidity;BMP_temperature;BMP_pressure;BME280_temperature;BME280_humidity;BME280_pressure;Samples;Min_cycle;Max_cycle;Signal;HPM_P1;HPM_P2
2022/09/22 06:28:17;;;;;;;2.25;1.27;;;12.30;1.00;;;;;;5193268;24;20326;-90
2022/09/22 06:32:07;;;;;;;2.90;1.05;;;12.30;1.00;;;;;;4742378;30;20124;-94
2022/09/22 06:35:01;;;;;;;;;;;12.30;1.00;;;;;;4734255;30;20199;-91
2022/09/22 06:38:17;;;;;;;2.42;1.00;;;12.30;1.00;;;;;;4733529;30;20402;-92
2022/09/22 06:41:26;;;;;;;1.80;1.25;;;12.30;1.00;;;;;;4721159;30;20061;-92
2022/09/22 07:04:32;;;;;;;13.10;11.90;;;12.30;1.00;;;;;;5402129;24;21122;-91
2022/09/22 07:07:14;;;;;;;2.58;1.77;;;12.30;1.00;;;;;;4786103;30;20055;-93
2022/09/22 07:09:48;;;;;;;4.20;2.35;;;12.30;1.00;;;;;;4774067;30;20074;-94
2022/09/22 07:12:25;;;;;;;3.03;1.50;;;12.30;1.00;;;;;;4775271;29;20097;-94
2022/09/22 07:18:00;;;;;;;11.13;2.60;;;12.40;1.00;;;;;;4781790;30;20051;-93
2022/09/22 07:24:47;;;;;;;11.30;5.10;;;12.40;1.00;;;;;;4784283;29;20122;-93
2022/09/22 07:27:42;;;;;;;3.40;1.83;;;12.30;1.00;;;;;;4773661;29;20125;-93
2022/09/22 07:30:41;;;;;;;3.22;2.92;;;12.30;1.00;;;;;;4783118;30;20111;-93
2022/09/22 07:33:14;;;;;;;5.85;3.67;;;12.30;1.00;;;;;;4788033;29;20051;-92
2022/09/22 07:36:17;;;;;;;7.68;4.43;;;12.30;1.00;;;;;;4773091;30;20151;-93
2022/09/22 07:39:33;;;;;;;8.50;5.70;;;12.40;1.00;;;;;;4790107;29;20202;-94
2022/09/22 07:42:07;;;;;;;9.00;4.90;;;12.40;1.00;;;;;;4791580;29;20064;-93
2022/09/22 07:51:11;;;;;;;;;;;;;;;;;;;;;
2022/09/22 07:54:06;;;;;;;15.07;9.45;;;12.60;1.00;;;;;;4788120;29;20438;-94
2022/09/22 07:56:46;;;;;;;16.85;10.35;;;12.60;1.00;;;;;;4792187;29;20055;-92
2022/09/22 08:03:30;;;;;;;14.05;10.90;;;12.80;1.00;;;;;;4792145;29;20050;-93
2022/09/22 08:06:09;;;;;;;20.50;11.48;;;12.90;1.00;;;;;;4776795;30;20083;-93
2022/09/22 08:08:51;;;;;;;16.88;11.30;;;12.90;1.00;;;;;;4791999;29;20078;-93
2022/09/22 08:11:27;;;;;;;13.88;10.02;;;13.00;1.00;;;;;;4791887;29;20078;-93
2022/09/22 08:14:03;;;;;;;13.80;10.00;;;13.00;1.00;;;;;;4790880;30;20051;-94
2022/09/22 08:16:37;;;;;;;19.87;10.50;;;13.10;1.00;;;;;;4776389;30;20143;-93
2022/09/22 08:23:03;;;;;;;23.15;11.10;;;13.30;1.00;;;;;;4806543;29;20059;-93
2022/09/22 08:26:07;;;;;;;11.10;8.00;;;13.30;1.00;;;;;;4774770;30;20075;-94
2022/09/22 08:28:49;;;;;;;22.25;11.85;;;13.40;1.00;;;;;;4776614;30;20055;-93
2022/09/22 08:32:00;;;;;;;18.50;12.35;;;13.50;1.00;;;;;;4790852;30;20043;-92
2022/09/22 08:35:49;;;;;;;;;;;;;;;;;;;;;
2022/09/22 08:38:41;;;;;;;12.88;10.07;;;13.70;1.00;;;;;;4790000;29;20082;-93
2022/09/22 08:41:38;;;;;;;16.25;10.88;;;13.70;1.00;;;;;;4776415;30;20103;-93
2022/09/22 08:44:07;;;;;;;19.13;11.02;;;13.90;1.00;;;;;;4794786;29;20043;-93
2022/09/22 08:46:46;;;;;;;17.40;11.25;;;14.00;1.00;;;;;;4813917;29;20059;-93
2022/09/22 08:52:40;;;;;;;17.63;10.52;;;14.10;1.00;;;;;;4813597;29;20039;-92
2022/09/22 08:55:29;;;;;;;13.55;9.20;;;14.20;1.00;;;;;;4813689;29;20067;-92
2022/09/22 08:58:40;;;;;;;14.98;9.73;;;14.20;1.00;;;;;;4809044;29;20051;-93
2022/09/22 09:01:32;;;;;;;15.63;9.88;;;14.30;1.00;;;;;;4775009;30;20089;-92
2022/09/22 09:04:27;;;;;;;12.10;9.60;;;14.40;1.00;;;;;;4791699;29;20047;-92
2022/09/22 09:08:01;;;;;;;19.27;9.43;;;14.40;1.00;;;;;;4780566;30;20581;-92
2022/09/22 09:11:05;;;;;;;16.53;10.23;;;14.50;1.00;;;;;;4784483;29;20410;-92
2022/09/22 09:13:53;;;;;;;14.27;9.68;;;14.70;1.00;;;;;;4775564;30;20300;-92
2022/09/22 09:16:47;;;;;;;13.13;9.15;;;14.70;1.00;;;;;;4791027;29;20058;-92
2022/09/22 09:19:28;;;;;;;16.40;9.23;;;14.80;1.00;;;;;;4790168;29;20077;-92
2022/09/22 09:22:06;;;;;;;19.50;9.65;;;14.90;1.00;;;;;;4790512;30;20057;-92
2022/09/22 09:24:44;;;;;;;14.40;8.85;;;14.90;1.00;;;;;;4791032;29;20126;-92
2022/09/22 09:27:39;;;;;;;12.82;9.23;;;15.00;1.00;;;;;;4792283;29;20047;-92
2022/09/22 09:30:16;;;;;;;21.45;8.85;;;15.00;1.00;;;;;;4789471;30;20058;-93
2022/09/22 09:33:09;;;;;;;16.73;10.68;;;15.00;1.00;;;;;;4775520;30;20054;-93
2022/09/22 09:35:47;;;;;;;13.40;9.15;;;15.10;1.00;;;;;;4789655;29;20055;-93
2022/09/22 09:38:24;;;;;;;16.33;9.35;;;15.10;1.00;;;;;;4775589;29;20051;-93
2022/09/22 09:41:13;;;;;;;15.65;9.35;;;15.30;1.00;;;;;;4789355;29;20059;-91
2022/09/22 09:43:46;;;;;;;11.57;8.30;;;15.50;1.00;;;;;;4789194;29;20055;-92
2022/09/22 09:46:27;;;;;;;13.98;7.47;;;15.50;1.00;;;;;;4789239;29;20094;-92
2022/09/22 09:49:04;;;;;;;12.98;9.20;;;15.50;1.00;;;;;;4790267;29;20076;-92
2022/09/22 09:51:37;;;;;;;11.45;7.50;;;15.50;1.00;;;;;;4789013;30;20085;-91
2022/09/22 09:54:08;;;;;;;9.55;6.47;;;15.50;1.00;;;;;;4790389;29;20070;-93
2022/09/22 09:57:15;;;;;;;12.80;7.30;;;15.60;1.00;;;;;;4789325;29;20533;-91
2022/09/22 10:00:31;;;;;;;11.05;7.78;;;15.70;1.00;;;;;;4789167;29;20059;-92
2022/09/22 10:03:09;;;;;;;12.07;6.88;;;15.90;1.00;;;;;;4773577;30;20055;-92
2022/09/22 10:05:39;;;;;;;15.02;7.45;;;15.90;1.00;;;;;;4788633;29;20049;-91
2022/09/22 10:08:20;;;;;;;11.48;8.15;;;15.90;1.00;;;;;;4788788;29;20047;-92
2022/09/22 10:10:53;;;;;;;12.90;8.32;;;15.90;1.00;;;;;;4789625;30;20142;-92
2022/09/22 10:13:37;;;;;;;12.50;6.60;;;16.00;1.00;;;;;;4789230;29;20489;-93
2022/09/22 10:16:22;;;;;;;13.45;6.82;;;15.80;1.00;;;;;;4789200;29;20058;-93
2022/09/22 10:19:04;;;;;;;8.80;6.88;;;15.80;1.00;;;;;;4790190;29;20051;-92
2022/09/22 10:21:38;;;;;;;12.95;7.90;;;16.00;1.00;;;;;;4774743;30;20177;-92
2022/09/22 10:24:33;;;;;;;8.15;6.15;;;16.10;1.00;;;;;;4788429;29;20039;-92
2022/09/22 10:27:04;;;;;;;14.23;6.18;;;16.30;1.00;;;;;;4788745;30;20491;-92
2022/09/22 10:29:36;;;;;;;9.35;4.63;;;16.40;1.00;;;;;;4788668;29;20047;-92
2022/09/22 10:32:14;;;;;;;7.07;4.93;;;16.20;1.00;;;;;;4788709;29;20055;-92
2022/09/22 10:35:11;;;;;;;5.68;3.45;;;16.20;1.00;;;;;;4789821;29;20403;-92
2022/09/22 10:37:52;;;;;;;6.07;5.22;;;16.00;1.00;;;;;;4763394;30;20055;-92
2022/09/22 10:40:23;;;;;;;7.90;5.35;;;16.20;1.00;;;;;;4788446;30;20055;-93
2022/09/22 10:42:55;;;;;;;5.97;4.65;;;16.30;1.00;;;;;;4788595;29;20138;-92
2022/09/22 10:45:45;;;;;;;9.93;5.20;;;16.30;1.00;;;;;;4788057;29;20419;-93
2022/09/22 10:48:34;;;;;;;11.23;5.25;;;16.40;1.00;;;;;;4788745;29;20055;-92
2022/09/22 10:51:15;;;;;;;6.93;4.32;;;16.30;1.00;;;;;;4789710;29;20047;-91
2022/09/22 10:54:21;;;;;;;10.27;5.28;;;16.30;1.00;;;;;;4787940;29;20051;-93
2022/09/22 10:56:58;;;;;;;9.98;4.22;;;16.20;1.00;;;;;;4788300;29;20451;-93
2022/09/22 10:59:39;;;;;;;13.27;4.38;;;16.40;1.00;;;;;;4788024;30;20063;-92
2022/09/22 11:02:54;;;;;;;10.73;5.90;;;16.50;1.00;;;;;;4773502;30;20499;-91
2022/09/22 11:15:05;;;;;;;5.90;3.38;;;16.60;1.00;;;;;;4788163;29;20291;-93
2022/09/22 11:18:27;;;;;;;9.18;3.03;;;16.70;1.00;;;;;;4787884;30;20058;-93
2022/09/22 11:21:39;;;;;;;3.90;2.17;;;16.70;1.00;;;;;;4772178;30;20422;-92
2022/09/22 11:24:38;;;;;;;4.47;1.90;;;16.80;1.00;;;;;;4795812;29;20078;-92
2022/09/22 11:27:38;;;;;;;4.57;2.67;;;17.00;1.00;;;;;;4788230;29;20049;-91
2022/09/22 11:30:22;;;;;;;2.58;1.50;;;17.10;1.00;;;;;;4773235;30;20044;-93
2022/09/22 11:33:07;;;;;;;2.83;1.40;;;17.10;1.00;;;;;;4773923;30;20050;-92
2022/09/22 11:36:17;;;;;;;4.55;1.88;;;17.10;1.00;;;;;;4787995;29;20146;-92
2022/09/22 11:39:11;;;;;;;6.85;1.48;;;17.30;1.00;;;;;;4773210;30;20062;-92
2022/09/22 11:41:52;;;;;;;6.70;1.92;;;17.30;1.00;;;;;;4789942;29;20051;-93
2022/09/22 11:44:37;;;;;;;3.53;1.58;;;17.40;1.00;;;;;;4809281;29;20062;-92
2022/09/22 11:47:29;;;;;;;5.80;1.80;;;17.50;1.00;;;;;;4810269;29;20035;-92
2022/09/22 11:50:14;;;;;;;4.95;1.35;;;17.50;1.00;;;;;;4811271;29;20059;-93
2022/09/22 11:53:34;;;;;;;3.28;1.30;;;17.60;1.00;;;;;;4796744;29;20042;-90
2022/09/22 11:56:33;;;;;;;4.70;1.20;;;17.80;1.00;;;;;;4789071;29;20071;-93
2022/09/22 11:59:12;;;;;;;3.30;1.30;;;17.90;1.00;;;;;;4787476;30;20142;-92
2022/09/22 12:01:40;;;;;;;3.55;1.10;;;18.00;1.00;;;;;;4787501;29;20055;-93
2022/09/22 12:04:36;;;;;;;4.35;2.08;;;18.10;1.00;;;;;;4787750;29;20047;-92
2022/09/22 12:07:33;;;;;;;3.83;1.40;;;18.10;1.00;;;;;;4774030;30;20058;-93
2022/09/22 12:10:16;;;;;;;1.27;0.90;;;18.20;1.00;;;;;;4787871;29;20043;-92
2022/09/22 12:12:47;;;;;;;8.15;1.70;;;18.20;1.00;;;;;;4787655;30;20043;-91
2022/09/22 12:15:36;;;;;;;3.33;1.13;;;18.20;1.00;;;;;;4787904;29;20055;-93
2022/09/22 12:18:21;;;;;;;2.25;1.10;;;18.20;1.00;;;;;;4787609;30;20487;-91
2022/09/22 12:20:57;;;;;;;8.25;1.10;;;18.20;1.00;;;;;;4787545;30;20051;-92
2022/09/22 12:23:37;;;;;;;6.93;1.17;;;18.20;1.00;;;;;;4787690;30;20162;-93
2022/09/22 12:26:23;;;;;;;3.40;1.00;;;18.40;1.00;;;;;;4790289;29;20097;-93
2022/09/22 12:28:58;;;;;;;3.58;0.90;;;18.50;1.00;;;;;;4790850;29;20150;-92
2022/09/22 12:31:35;;;;;;;4.72;1.50;;;18.50;1.00;;;;;;4790791;30;20082;-93
2022/09/22 12:34:13;;;;;;;2.05;1.60;;;18.60;1.00;;;;;;4775922;29;20131;-93
2022/09/22 12:36:45;;;;;;;5.22;1.05;;;18.70;1.00;;;;;;4790984;29;20059;-91
2022/09/22 12:39:39;;;;;;;2.20;1.10;;;18.70;1.00;;;;;;4805274;29;20043;-93
2022/09/22 12:42:33;;;;;;;6.32;2.08;;;18.80;1.00;;;;;;4775917;29;20047;-92
2022/09/22 12:45:31;;;;;;;4.03;1.60;;;18.80;1.00;;;;;;4805579;29;20048;-93
2022/09/22 12:48:12;;;;;;;;;;;18.90;1.00;;;;;;4776152;30;20427;-93
2022/09/22 12:50:42;;;;;;;2.08;1.33;;;19.00;1.00;;;;;;4790273;29;19953;-93
2022/09/22 12:53:21;;;;;;;4.75;1.55;;;19.00;1.00;;;;;;4790752;29;20054;-92
2022/09/22 12:55:53;;;;;;;8.38;2.88;;;19.10;1.00;;;;;;4790376;29;20055;-93
2022/09/22 12:58:25;;;;;;;4.18;1.95;;;19.00;1.00;;;;;;4790455;29;20056;-93
2022/09/22 13:00:55;;;;;;;7.45;2.03;;;19.10;1.00;;;;;;4775540;30;20043;-92
2022/09/22 13:03:24;;;;;;;2.03;1.13;;;19.10;1.00;;;;;;4790557;30;20047;-93
2022/09/22 13:06:21;;;;;;;10.50;1.98;;;19.20;1.00;;;;;;4790805;29;20101;-92
2022/09/22 13:08:51;;;;;;;5.18;1.85;;;19.30;1.00;;;;;;4774987;30;20048;-93
2022/09/22 13:11:18;;;;;;;7.63;1.95;;;19.30;1.00;;;;;;4790089;30;20417;-92
2022/09/22 13:13:50;;;;;;;3.63;1.60;;;19.30;1.00;;;;;;4775866;30;20070;-92
2022/09/22 13:16:17;;;;;;;3.03;1.63;;;19.40;1.00;;;;;;4789988;29;20055;-92
2022/09/22 13:18:51;;;;;;;2.75;1.75;;;19.40;1.00;;;;;;4775480;30;20425;-91
2022/09/22 13:21:28;;;;;;;3.35;1.17;;;19.40;1.00;;;;;;4789933;29;20055;-92
2022/09/22 13:24:01;;;;;;;3.78;1.15;;;19.40;1.00;;;;;;4789705;30;20059;-93
2022/09/22 13:27:09;;;;;;;2.22;1.30;;;19.50;1.00;;;;;;4790300;29;20051;-93
2022/09/22 13:30:14;;;;;;;3.45;1.48;;;19.50;1.00;;;;;;4802980;29;20047;-94
2022/09/22 13:33:24;;;;;;;3.75;1.42;;;19.60;1.00;;;;;;4789381;29;20471;-93
2022/09/22 13:35:58;;;;;;;1.50;0.95;;;19.70;1.00;;;;;;4772060;29;20055;-93
2022/09/22 13:38:36;;;;;;;4.07;1.45;;;19.70;1.00;;;;;;4789552;29;20051;-93
2022/09/22 13:41:11;;;;;;;8.25;1.80;;;19.70;1.00;;;;;;4789747;29;20059;-93
2022/09/22 13:43:48;;;;;;;3.33;1.27;;;19.70;1.00;;;;;;4790752;29;20051;-94
2022/09/22 13:46:23;;;;;;;2.10;1.00;;;19.70;1.00;;;;;;4789470;29;20051;-93
2022/09/22 13:48:57;;;;;;;2.22;1.00;;;19.70;1.00;;;;;;4789688;29;20051;-93
2022/09/22 13:51:26;;;;;;;5.78;1.40;;;19.70;1.00;;;;;;4804183;29;20039;-92
2022/09/22 13:54:00;;;;;;;2.38;1.20;;;19.80;1.00;;;;;;4789381;29;20150;-93
2022/09/22 13:56:30;;;;;;;1.75;1.13;;;19.90;1.00;;;;;;4804944;29;20047;-92
2022/09/22 13:59:00;;;;;;;3.35;1.23;;;20.00;1.00;;;;;;4790386;29;20463;-94
2022/09/22 14:01:44;;;;;;;2.42;1.38;;;20.00;1.00;;;;;;4789713;29;20067;-93
2022/09/22 14:04:25;;;;;;;2.05;1.27;;;20.00;1.00;;;;;;4789794;29;20131;-93
2022/09/22 14:06:58;;;;;;;2.72;1.00;;;20.20;1.00;;;;;;4774386;30;20200;-92
2022/09/22 14:09:37;;;;;;;2.58;1.77;;;20.20;1.00;;;;;;4789456;30;20047;-93
2022/09/22 14:12:14;;;;;;;4.57;1.27;;;20.30;1.00;;;;;;4789175;30;20529;-92
2022/09/22 14:14:51;;;;;;;2.75;1.25;;;20.20;1.00;;;;;;4789162;29;20059;-92
2022/09/22 14:17:27;;;;;;;6.80;1.70;;;20.20;1.00;;;;;;4789280;29;20051;-93
2022/09/22 14:20:11;;;;;;;2.78;1.52;;;20.20;1.00;;;;;;4788876;30;20047;-93
2022/09/22 14:22:42;;;;;;;6.85;2.10;;;20.30;1.00;;;;;;4789165;29;20108;-93
2022/09/22 14:25:21;;;;;;;7.45;2.40;;;20.30;1.00;;;;;;4788982;29;20047;-93
2022/09/22 14:28:00;;;;;;;2.58;1.40;;;20.30;1.00;;;;;;4789234;29;20092;-93
2022/09/22 14:30:37;;;;;;;4.43;1.80;;;20.50;1.00;;;;;;4803719;29;20062;-95
2022/09/22 14:33:16;;;;;;;3.97;2.33;;;20.50;1.00;;;;;;4789198;29;20077;-92
2022/09/22 14:36:01;;;;;;;;;;;20.70;1.00;;;;;;4791539;29;20510;-94
2022/09/22 14:38:38;;;;;;;1.90;0.80;;;20.80;1.00;;;;;;4811064;29;19917;-93
2022/09/22 14:41:26;;;;;;;3.05;1.83;;;20.90;1.00;;;;;;4811641;29;20067;-92
2022/09/22 14:44:36;;;;;;;7.22;2.00;;;21.00;1.00;;;;;;4811472;29;20036;-89
2022/09/22 14:47:17;;;;;;;2.45;1.42;;;21.00;1.00;;;;;;4811612;29;20043;-92
2022/09/22 14:50:24;;;;;;;3.13;1.35;;;21.20;1.00;;;;;;4806753;29;20055;-93
2022/09/22 14:53:30;;;;;;;4.07;1.50;;;21.40;1.00;;;;;;4775448;30;20146;-92
2022/09/22 14:56:13;;;;;;;1.90;0.95;;;21.40;1.00;;;;;;4774705;30;20051;-92
2022/09/22 14:58:52;;;;;;;5.97;1.73;;;21.50;1.00;;;;;;4773758;30;20525;-92
2022/09/22 15:04:21;;;;;;;2.53;1.10;;;21.70;1.00;;;;;;4788418;29;20059;-91
2022/09/22 15:06:58;;;;;;;2.42;1.35;;;21.90;1.00;;;;;;4788096;30;20134;-92
2022/09/22 15:09:39;;;;;;;2.55;1.15;;;21.90;1.00;;;;;;4788195;30;20094;-91
2022/09/22 15:12:42;;;;;;;4.65;2.35;;;21.90;1.00;;;;;;4788178;30;20055;-90
2022/09/22 15:15:20;;;;;;;3.75;1.17;;;21.90;1.00;;;;;;4787888;29;20061;-91
2022/09/22 15:20:57;;;;;;;5.65;2.22;;;21.90;1.00;;;;;;4789041;29;20064;-92
2022/09/22 15:23:41;;;;;;;2.53;0.90;;;21.80;1.00;;;;;;4803465;29;20051;-91
2022/09/22 15:26:23;;;;;;;2.55;1.23;;;21.70;1.00;;;;;;4787608;29;20054;-91
2022/09/22 15:28:53;;;;;;;3.50;1.58;;;21.70;1.00;;;;;;4788147;30;20043;-92
2022/09/22 15:31:28;;;;;;;1.40;1.00;;;21.60;1.00;;;;;;4788089;30;20053;-90
2022/09/22 15:34:01;;;;;;;2.17;1.27;;;21.60;1.00;;;;;;4773473;29;20104;-92
2022/09/22 15:36:35;;;;;;;3.40;2.00;;;21.50;1.00;;;;;;4788382;30;20061;-92
2022/09/22 15:39:19;;;;;;;2.17;1.25;;;21.40;1.00;;;;;;4802066;29;20047;-93
2022/09/22 15:41:50;;;;;;;3.47;1.63;;;21.30;1.00;;;;;;4788074;30;20147;-90
2022/09/22 15:44:26;;;;;;;2.22;1.00;;;21.30;1.00;;;;;;4789026;29;20422;-91
2022/09/22 15:47:00;;;;;;;2.53;1.20;;;21.20;1.00;;;;;;4803011;29;20051;-91
2022/09/22 15:49:33;;;;;;;3.20;1.08;;;21.10;1.00;;;;;;4787712;30;20058;-91
2022/09/22 15:52:04;;;;;;;1.70;0.88;;;21.10;1.00;;;;;;4788550;30;20499;-90
2022/09/22 15:54:34;;;;;;;2.45;1.15;;;21.00;1.00;;;;;;4803570;29;20048;-91
2022/09/22 15:57:08;;;;;;;1.83;1.10;;;21.00;1.00;;;;;;4788064;29;20056;-91
2022/09/22 15:59:44;;;;;;;1.92;1.38;;;20.90;1.00;;;;;;4788176;29;20138;-91
2022/09/22 16:02:14;;;;;;;5.32;2.10;;;20.80;1.00;;;;;;4806166;29;20467;-90
2022/09/22 16:04:44;;;;;;;;;;;20.80;1.00;;;;;;4791244;29;20055;-94
2022/09/22 16:07:15;;;;;;;2.47;1.10;;;20.60;1.00;;;;;;4791074;30;20322;-92
2022/09/22 16:09:46;;;;;;;2.92;1.35;;;20.60;1.00;;;;;;4791328;30;20487;-92
2022/09/22 16:12:20;;;;;;;2.25;1.23;;;20.50;1.00;;;;;;4805974;29;20051;-91
2022/09/22 16:14:53;;;;;;;2.70;1.17;;;20.50;1.00;;;;;;4791081;29;20047;-91
2022/09/22 16:17:24;;;;;;;2.42;1.50;;;20.40;1.00;;;;;;4791373;29;20051;-92
2022/09/22 16:19:55;;;;;;;4.95;1.55;;;20.30;1.00;;;;;;4776958;29;20055;-91
2022/09/22 16:22:24;;;;;;;4.32;1.95;;;20.20;1.00;;;;;;4775755;29;20074;-91
2022/09/22 16:24:53;;;;;;;2.33;1.10;;;20.20;1.00;;;;;;4791063;29;20134;-92
2022/09/22 16:27:28;;;;;;;1.42;1.02;;;20.10;1.00;;;;;;4776054;30;20054;-91
2022/09/22 16:29:59;;;;;;;2.25;1.20;;;20.00;1.00;;;;;;4791026;29;20057;-90
2022/09/22 16:32:33;;;;;;;1.55;0.90;;;20.00;1.00;;;;;;4790685;30;20095;-91
2022/09/22 16:35:07;;;;;;;2.30;1.30;;;19.80;1.00;;;;;;4805549;29;20143;-90
2022/09/22 16:37:36;;;;;;;1.58;0.82;;;19.70;1.00;;;;;;4790848;29;20606;-91
2022/09/22 16:40:11;;;;;;;2.72;1.30;;;19.70;1.00;;;;;;4790733;30;20051;-91
2022/09/22 16:42:43;;;;;;;1.80;1.17;;;19.60;1.00;;;;;;4791080;30;20487;-91
2022/09/22 16:45:14;;;;;;;3.08;1.23;;;19.60;1.00;;;;;;4805366;29;20058;-92
2022/09/22 16:47:44;;;;;;;2.15;1.15;;;19.50;1.00;;;;;;4791946;29;20053;-92
2022/09/22 16:50:12;;;;;;;2.33;1.67;;;19.40;1.00;;;;;;4790597;30;20139;-90
2022/09/22 16:52:47;;;;;;;1.53;1.13;;;19.40;1.00;;;;;;4790361;29;20085;-90
2022/09/22 16:55:19;;;;;;;2.00;1.35;;;19.30;1.00;;;;;;4790383;29;20073;-91
2022/09/22 16:57:51;;;;;;;2.20;1.15;;;19.20;1.00;;;;;;4790689;29;20123;-91
2022/09/22 17:00:21;;;;;;;3.58;1.23;;;19.10;1.00;;;;;;4775569;29;20051;-90
2022/09/22 17:02:48;;;;;;;3.65;1.10;;;19.10;1.00;;;;;;4790454;30;20047;-89
2022/09/22 17:05:18;;;;;;;1.48;0.93;;;19.00;1.00;;;;;;4790740;29;20047;-91
2022/09/22 17:07:48;;;;;;;2.80;1.38;;;19.00;1.00;;;;;;4790118;29;20047;-90
2022/09/22 17:10:18;;;;;;;1.50;1.40;;;18.90;1.00;;;;;;4790222;30;20051;-91
2022/09/22 17:12:53;;;;;;;2.13;1.08;;;18.80;1.00;;;;;;4776076;30;20491;-90
2022/09/22 17:15:22;;;;;;;3.13;1.40;;;18.70;1.00;;;;;;4790343;29;20043;-92
2022/09/22 17:17:54;;;;;;;2.95;1.33;;;18.70;1.00;;;;;;4790236;30;20130;-91
2022/09/22 17:20:29;;;;;;;1.77;1.05;;;18.60;1.00;;;;;;4775609;30;20055;-92
2022/09/22 17:22:58;;;;;;;4.10;1.55;;;18.60;1.00;;;;;;4790885;29;20150;-91
2022/09/22 17:25:27;;;;;;;1.95;1.15;;;18.50;1.00;;;;;;4791319;29;20406;-92
2022/09/22 17:28:03;;;;;;;1.50;1.10;;;18.40;1.00;;;;;;4793098;29;20046;-90
2022/09/22 17:31:06;;;;;;;2.53;1.17;;;18.40;1.00;;;;;;4798353;30;20051;-91
2022/09/22 17:33:58;;;;;;;3.90;1.40;;;18.30;1.00;;;;;;4814828;29;20027;-91
2022/09/22 17:36:28;;;;;;;1.35;0.98;;;18.30;1.00;;;;;;4798659;29;20043;-91
2022/09/22 17:39:00;;;;;;;3.67;1.55;;;18.20;1.00;;;;;;4813170;29;20062;-90
2022/09/22 17:41:31;;;;;;;0.90;0.70;;;18.10;1.00;;;;;;4804279;29;20052;-92
2022/09/22 17:44:05;;;;;;;1.50;0.90;;;18.10;1.00;;;;;;4805142;29;20059;-91
2022/09/22 17:55:05;;;;;;;2.25;1.10;;;18.00;1.00;;;;;;4789774;30;20327;-92
2022/09/22 17:55:17;;;;;;;1.98;1.10;;;17.90;1.00;;;;;;4804493;29;20074;-91
2022/09/22 17:57:49;;;;;;;5.80;1.50;;;17.80;1.00;;;;;;4790601;29;20074;-92
2022/09/22 18:00:21;;;;;;;2.13;1.63;;;17.80;1.00;;;;;;4789524;30;20061;-92
2022/09/22 18:02:57;;;;;;;2.95;1.48;;;17.70;1.00;;;;;;4775031;30;20062;-92
2022/09/22 18:06:18;;;;;;;2.78;1.20;;;17.70;1.00;;;;;;4798338;29;20127;-90
2022/09/22 18:12:03;;;;;;;2.08;1.13;;;17.60;1.00;;;;;;4789715;30;20075;-94
2022/09/22 18:14:46;;;;;;;3.05;1.58;;;17.50;1.00;;;;;;4804439;29;20051;-95
2022/09/22 18:17:15;;;;;;;2.15;1.17;;;17.40;1.00;;;;;;4789662;30;20047;-92
2022/09/22 18:19:47;;;;;;;1.70;1.00;;;17.40;1.00;;;;;;4790737;30;20130;-91
2022/09/22 18:22:21;;;;;;;2.78;1.00;;;17.40;1.00;;;;;;4789089;29;20055;-92
2022/09/22 18:24:57;;;;;;;2.30;1.63;;;17.30;1.00;;;;;;4789462;29;20047;-92
2022/09/22 18:27:31;;;;;;;3.05;1.20;;;17.30;1.00;;;;;;4790360;29;20078;-90
2022/09/22 18:30:05;;;;;;;3.65;1.23;;;17.30;1.00;;;;;;4788861;30;20050;-92
2022/09/22 18:32:34;;;;;;;;;;;17.30;1.00;;;;;;4789721;30;20114;-92
2022/09/22 18:35:32;;;;;;;2.85;1.25;;;17.20;1.00;;;;;;4788834;29;20011;-92
2022/09/22 18:38:04;;;;;;;2.92;1.77;;;17.20;1.00;;;;;;4804148;29;20059;-92
2022/09/22 18:40:32;;;;;;;4.72;1.65;;;17.10;1.00;;;;;;4789718;29;20057;-95
2022/09/22 18:43:08;;;;;;;3.88;1.50;;;17.10;1.00;;;;;;4803512;29;20556;-94
2022/09/22 18:45:38;;;;;;;5.22;2.03;;;17.10;1.00;;;;;;4788511;29;20054;-94
2022/09/22 18:48:08;;;;;;;3.38;1.65;;;17.00;1.00;;;;;;4788699;30;20510;-95
2022/09/22 18:50:39;;;;;;;2.85;1.90;;;17.00;1.00;;;;;;4788982;30;20082;-90
2022/09/22 18:53:09;;;;;;;4.28;1.65;;;17.00;1.00;;;;;;4803379;29;20138;-92
2022/09/22 18:55:38;;;;;;;5.30;2.10;;;16.90;1.00;;;;;;4803071;29;20050;-92
2022/09/22 18:58:07;;;;;;;4.53;1.60;;;16.90;1.00;;;;;;4774009;30;20059;-93
2022/09/22 19:00:42;;;;;;;3.70;1.80;;;16.90;1.00;;;;;;4789183;29;20100;-95
2022/09/22 19:03:17;;;;;;;4.32;1.52;;;16.80;1.00;;;;;;4788734;29;20047;-92
2022/09/22 19:05:47;;;;;;;3.90;1.98;;;16.80;1.00;;;;;;4788245;29;20075;-94
2022/09/22 19:08:16;;;;;;;2.90;1.63;;;16.80;1.00;;;;;;4789713;29;20509;-95
2022/09/22 19:10:46;;;;;;;3.75;1.45;;;16.80;1.00;;;;;;4802836;29;20051;-92
2022/09/22 19:13:20;;;;;;;6.03;1.80;;;16.80;1.00;;;;;;4788360;29;20075;-91
2022/09/22 19:15:47;;;;;;;3.38;1.98;;;16.70;1.00;;;;;;4789204;29;20102;-91
2022/09/22 19:18:21;;;;;;;3.67;1.55;;;16.70;1.00;;;;;;4774252;30;20104;-92
2022/09/22 19:20:48;;;;;;;3.95;2.13;;;16.70;1.00;;;;;;4804049;29;20111;-92
2022/09/22 19:23:20;;;;;;;2.35;1.55;;;16.60;1.00;;;;;;4788236;30;20055;-92
2022/09/22 19:25:52;;;;;;;2.22;1.70;;;16.60;1.00;;;;;;4788323;29;20398;-92
2022/09/22 19:28:26;;;;;;;3.33;2.05;;;16.60;1.00;;;;;;4789222;29;20054;-90
2022/09/22 19:30:57;;;;;;;4.88;2.13;;;16.50;1.00;;;;;;4788708;29;20047;-92
2022/09/22 19:33:30;;;;;;;2.83;1.65;;;16.50;1.00;;;;;;4788512;30;20057;-90
2022/09/22 19:36:01;;;;;;;3.78;1.90;;;16.50;1.00;;;;;;4790726;29;20059;-92
2022/09/22 19:38:33;;;;;;;4.95;2.38;;;16.50;1.00;;;;;;4791627;29;20062;-92
2022/09/22 19:41:03;;;;;;;2.55;1.90;;;16.40;1.00;;;;;;4791925;29;20047;-92
2022/09/22 19:43:32;;;;;;;3.70;1.63;;;16.40;1.00;;;;;;4776934;30;20072;-93
2022/09/22 19:46:07;;;;;;;5.07;2.15;;;16.40;1.00;;;;;;4807047;29;20047;-92
2022/09/22 19:48:39;;;;;;;2.97;1.83;;;16.40;1.00;;;;;;4778197;30;20055;-92
2022/09/22 19:51:07;;;;;;;4.95;1.92;;;16.30;1.00;;;;;;4777508;30;20063;-90
2022/09/22 19:53:42;;;;;;;5.25;3.00;;;16.30;1.00;;;;;;4791792;29;20494;-93
2022/09/22 19:56:24;;;;;;;3.92;2.50;;;16.30;1.00;;;;;;4791348;29;20104;-96
2022/09/22 19:59:08;;;;;;;4.25;2.35;;;16.20;1.00;;;;;;4778894;30;20108;-94
2022/09/22 20:01:40;;;;;;;3.38;2.55;;;16.20;1.00;;;;;;4806505;29;20047;-95
2022/09/22 20:04:17;;;;;;;4.85;2.63;;;16.20;1.00;;;;;;4776947;29;20054;-95
2022/09/22 20:06:52;;;;;;;4.75;2.55;;;16.10;1.00;;;;;;4791838;30;20047;-94
2022/09/22 20:09:26;;;;;;;3.22;2.53;;;16.10;1.00;;;;;;4792087;29;20055;-94
